Time;durP1;ratioP1;P1;durP2;ratioP2;P2;SDS_P1;SDS_P2;PMS_P1;PMS_P2;Temp;Humidity;BMP_temperature;BMP_pressure;BME280_temperature;BME280_humidity;BME280_pressure;Samples;Min_cycle;Max_cycle;Signal;HPM_P1;HPM_P2
2024/02/16 00:01:44;;;;;;;0.00;0.00;;;;;;;;;;5072685;28;20480;-63
2024/02/16 00:04:10;;;;;;;0.20;0.20;;;;;;;;;;5073504;28;20260;-63
2024/02/16 00:06:35;;;;;;;0.00;0.00;;;;;;;;;;5074029;28;20252;-63
2024/02/16 00:09:01;;;;;;;0.00;0.00;;;;;;;;;;5073820;28;20032;-63
2024/02/16 00:11:26;;;;;;;0.10;0.10;;;;;;;;;;5074140;28;20020;-62
2024/02/16 00:13:51;;;;;;;0.00;0.00;;;;;;;;;;5073851;28;20016;-62
2024/02/16 00:16:17;;;;;;;0.10;0.10;;;;;;;;;;5073774;28;20288;-62
2024/02/16 00:18:43;;;;;;;2.00;1.52;;;;;;;;;;5074098;28;20388;-63
2024/02/16 00:21:08;;;;;;;0.55;0.38;;;;;;;;;;5073724;28;20028;-63
2024/02/16 00:23:33;;;;;;;0.50;0.50;;;;;;;;;;5073983;28;20031;-62
2024/02/16 00:25:59;;;;;;;0.00;0.00;;;;;;;;;;5073937;28;20027;-62
2024/02/16 00:28:24;;;;;;;1.13;0.50;;;;;;;;;;5073716;28;20109;-62
2024/02/16 00:30:49;;;;;;;0.00;0.00;;;;;;;;;;5073897;28;20051;-62
2024/02/16 00:33:17;;;;;;;0.00;0.00;;;;;;;;;;5073354;28;20289;-62
2024/02/16 00:35:42;;;;;;;0.00;0.00;;;;;;;;;;5073818;28;20024;-62
2024/02/16 00:38:07;;;;;;;0.10;0.10;;;;;;;;;;5073638;28;20020;-62
2024/02/16 00:40:32;;;;;;;0.10;0.10;;;;;;;;;;5073480;28;20480;-62
2024/02/16 00:42:58;;;;;;;0.00;0.00;;;;;;;;;;5078502;28;20020;-62
2024/02/16 00:45:23;;;;;;;0.10;0.10;;;;;;;;;;5093258;28;20028;-63
2024/02/16 00:47:48;;;;;;;0.10;0.10;;;;;;;;;;5093816;28;20024;-62
2024/02/16 00:50:15;;;;;;;0.07;0.07;;;;;;;;;;5093822;28;20248;-62
2024/02/16 00:52:40;;;;;;;0.10;0.10;;;;;;;;;;5092958;28;20265;-62
2024/02/16 00:55:05;;;;;;;0.10;0.10;;;;;;;;;;5093548;28;20081;-62
2024/02/16 00:57:31;;;;;;;0.00;0.00;;;;;;;;;;5093209;28;20260;-62
2024/02/16 00:59:56;;;;;;;0.10;0.10;;;;;;;;;;5093360;28;20392;-62
2024/02/16 01:02:22;;;;;;;0.30;0.20;;;;;;;;;;5093411;28;20035;-62
2024/02/16 01:04:47;;;;;;;0.30;0.30;;;;;;;;;;5092891;28;20487;-62
2024/02/16 01:07:12;;;;;;;0.00;0.00;;;;;;;;;;5093427;28;20042;-62
2024/02/16 01:09:38;;;;;;;0.40;0.30;;;;;;;;;;5093366;28;20486;-62
2024/02/16 01:12:03;;;;;;;0.00;0.00;;;;;;;;;;5093295;28;20819;-62
2024/02/16 01:14:28;;;;;;;0.40;0.40;;;;;;;;;;5092705;28;20068;-62
2024/02/16 01:16:53;;;;;;;0.90;0.60;;;;;;;;;;5093276;28;20020;-62
2024/02/16 01:19:18;;;;;;;1.77;0.53;;;;;;;;;;5093282;28;20600;-62
2024/02/16 01:21:47;;;;;;;0.27;0.27;;;;;;;;;;5093520;28;20024;-62
2024/02/16 01:24:13;;;;;;;0.22;0.20;;;;;;;;;;5093141;28;20252;-62
2024/02/16 01:26:38;;;;;;;0.20;0.20;;;;;;;;;;5093137;28;20028;-62
2024/02/16 01:29:03;;;;;;;1.03;0.63;;;;;;;;;;5093131;28;20069;-62
2024/02/16 01:31:28;;;;;;;0.30;0.30;;;;;;;;;;5092880;28;20269;-62
2024/02/16 01:33:54;;;;;;;0.08;0.08;;;;;;;;;;5092584;28;20277;-62
2024/02/16 01:36:19;;;;;;;0.20;0.20;;;;;;;;;;5093090;28;20081;-62
2024/02/16 01:38:44;;;;;;;0.20;0.15;;;;;;;;;;5093108;28;20499;-62
2024/02/16 01:41:10;;;;;;;0.30;0.30;;;;;;;;;;5093009;28;20095;-62
2024/02/16 01:43:36;;;;;;;0.00;0.00;;;;;;;;;;5084103;28;20352;-62
2024/02/16 01:46:01;;;;;;;0.17;0.17;;;;;;;;;;5072780;28;20120;-62
2024/02/16 01:48:27;;;;;;;0.03;0.03;;;;;;;;;;5073099;28;20743;-62
2024/02/16 01:50:53;;;;;;;0.00;0.00;;;;;;;;;;5073043;28;20027;-62
2024/02/16 01:53:18;;;;;;;0.08;0.08;;;;;;;;;;5072695;28;20376;-62
2024/02/16 01:55:44;;;;;;;0.10;0.10;;;;;;;;;;5072695;28;20020;-62
2024/02/16 01:58:10;;;;;;;0.15;0.15;;;;;;;;;;5054950;28;20031;-62
2024/02/16 02:00:35;;;;;;;0.95;0.88;;;;;;;;;;5072708;28;20024;-62
2024/02/16 02:03:00;;;;;;;0.10;0.10;;;;;;;;;;5072659;28;20476;-62
2024/02/16 02:05:25;;;;;;;0.10;0.10;;;;;;;;;;5072644;28;20760;-62
2024/02/16 02:07:51;;;;;;;0.50;0.23;;;;;;;;;;5072534;28;20273;-62
2024/02/16 02:10:16;;;;;;;0.20;0.20;;;;;;;;;;5072824;28;20242;-62
2024/02/16 02:12:42;;;;;;;0.00;0.00;;;;;;;;;;5072534;28;20468;-62
2024/02/16 02:15:08;;;;;;;0.13;0.13;;;;;;;;;;5073264;28;20748;-62
2024/02/16 02:17:34;;;;;;;0.20;0.10;;;;;;;;;;5058196;28;20074;-62
2024/02/16 02:19:59;;;;;;;0.20;0.20;;;;;;;;;;5076357;28;20468;-62
2024/02/16 02:22:26;;;;;;;0.28;0.28;;;;;;;;;;5076071;28;20020;-62
2024/02/16 02:24:55;;;;;;;0.10;0.10;;;;;;;;;;5076238;28;20353;-62
2024/02/16 02:27:20;;;;;;;0.00;0.00;;;;;;;;;;5076196;28;20535;-62
2024/02/16 02:29:45;;;;;;;0.10;0.10;;;;;;;;;;5076184;28;20047;-62
2024/02/16 02:32:12;;;;;;;0.03;0.03;;;;;;;;;;5075853;28;20257;-62
2024/02/16 02:34:37;;;;;;;0.10;0.10;;;;;;;;;;5076015;28;20101;-62
2024/02/16 02:37:03;;;;;;;0.00;0.00;;;;;;;;;;5075846;28;20130;-62
2024/02/16 02:39:29;;;;;;;2.75;0.55;;;;;;;;;;5075964;28;20028;-62
2024/02/16 02:41:54;;;;;;;0.10;0.10;;;;;;;;;;5075742;28;20043;-62
2024/02/16 02:44:19;;;;;;;0.00;0.00;;;;;;;;;;5087784;28;20092;-62
2024/02/16 02:46:45;;;;;;;1.70;1.60;;;;;;;;;;5081007;28;20265;-62
2024/02/16 02:49:10;;;;;;;0.20;0.20;;;;;;;;;;5088385;28;20066;-62
2024/02/16 02:51:35;;;;;;;1.40;1.03;;;;;;;;;;5075798;28;20012;-62
2024/02/16 02:54:00;;;;;;;0.93;0.82;;;;;;;;;;5076398;28;20260;-62
2024/02/16 02:56:26;;;;;;;0.40;0.40;;;;;;;;;;5075668;28;20027;-62
2024/02/16 02:58:51;;;;;;;0.90;0.53;;;;;;;;;;5075471;28;20025;-68
2024/02/16 03:01:19;;;;;;;0.98;0.93;;;;;;;;;;5075365;28;20031;-67
2024/02/16 03:03:44;;;;;;;0.35;0.35;;;;;;;;;;5075522;28;20028;-68
2024/02/16 03:06:10;;;;;;;0.00;0.00;;;;;;;;;;5075258;28;20538;-67
2024/02/16 03:08:35;;;;;;;0.43;0.43;;;;;;;;;;5075229;28;20351;-67
2024/02/16 03:11:00;;;;;;;0.15;0.10;;;;;;;;;;5075109;28;20460;-68
2024/02/16 03:13:26;;;;;;;0.10;0.10;;;;;;;;;;5075265;28;20025;-67
2024/02/16 03:15:52;;;;;;;0.25;0.25;;;;;;;;;;5075105;28;20025;-68
2024/02/16 03:18:18;;;;;;;0.10;0.10;;;;;;;;;;5057124;28;20392;-67
2024/02/16 03:20:45;;;;;;;1.52;1.42;;;;;;;;;;5075230;28;20028;-68
2024/02/16 03:23:11;;;;;;;0.32;0.32;;;;;;;;;;5075132;28;20024;-67
2024/02/16 03:25:36;;;;;;;0.10;0.10;;;;;;;;;;5074846;28;20379;-67
2024/02/16 03:28:01;;;;;;;1.00;0.80;;;;;;;;;;5073924;28;20274;-67
2024/02/16 03:30:26;;;;;;;0.30;0.30;;;;;;;;;;5074768;28;20242;-67
2024/02/16 03:32:54;;;;;;;0.10;0.10;;;;;;;;;;5072922;28;20633;-67
2024/02/16 03:35:19;;;;;;;0.00;0.00;;;;;;;;;;5095161;28;20774;-67
2024/02/16 03:37:45;;;;;;;0.30;0.30;;;;;;;;;;5094636;28;20024;-68
2024/02/16 03:40:12;;;;;;;0.63;0.63;;;;;;;;;;5094767;28;20032;-68
2024/02/16 03:42:37;;;;;;;0.65;0.55;;;;;;;;;;5095039;28;20282;-67
2024/02/16 03:45:03;;;;;;;0.10;0.10;;;;;;;;;;5075506;28;20452;-68
2024/02/16 03:47:28;;;;;;;0.05;0.05;;;;;;;;;;5074358;28;20369;-68
2024/02/16 03:49:53;;;;;;;0.10;0.10;;;;;;;;;;5074422;28;20484;-67
2024/02/16 03:52:18;;;;;;;1.40;1.30;;;;;;;;;;5074526;28;20740;-67
2024/02/16 03:54:47;;;;;;;0.00;0.00;;;;;;;;;;5074167;28;20024;-68
2024/02/16 03:57:12;;;;;;;0.63;0.45;;;;;;;;;;5074485;28;20465;-67
2024/02/16 03:59:38;;;;;;;0.52;0.52;;;;;;;;;;5074448;28;20024;-68
2024/02/16 04:02:03;;;;;;;0.27;0.27;;;;;;;;;;5074120;28;20383;-68
2024/02/16 04:04:28;;;;;;;0.20;0.20;;;;;;;;;;5087280;28;20020;-67
2024/02/16 04:06:53;;;;;;;0.80;0.40;;;;;;;;;;5094582;28;20054;-67
2024/02/16 04:09:19;;;;;;;0.30;0.30;;;;;;;;;;5094289;28;20103;-62
2024/02/16 04:11:45;;;;;;;0.27;0.27;;;;;;;;;;5094181;28;20016;-62
2024/02/16 04:14:11;;;;;;;0.20;0.20;;;;;;;;;;5093696;28;20261;-62
2024/02/16 04:16:36;;;;;;;0.10;0.10;;;;;;;;;;5094427;28;20027;-62
2024/02/16 04:19:01;;;;;;;4.00;0.70;;;;;;;;;;5094077;28;20099;-62
2024/02/16 04:21:26;;;;;;;0.20;0.20;;;;;;;;;;5094262;28;20028;-62
2024/02/16 04:23:52;;;;;;;0.83;0.27;;;;;;;;;;5093726;28;20264;-62
2024/02/16 04:26:17;;;;;;;0.20;0.20;;;;;;;;;;5094034;28;20059;-62
2024/02/16 04:28:42;;;;;;;0.33;0.33;;;;;;;;;;5093929;28;20300;-62
2024/02/16 04:31:07;;;;;;;0.30;0.30;;;;;;;;;;5093535;28;20290;-62
2024/02/16 04:33:33;;;;;;;0.43;0.43;;;;;;;;;;5093381;28;20040;-62
2024/02/16 04:35:58;;;;;;;0.00;0.00;;;;;;;;;;5093829;28;20256;-62
2024/02/16 04:38:23;;;;;;;0.10;0.10;;;;;;;;;;5093492;28;20073;-62
2024/02/16 04:40:48;;;;;;;0.00;0.00;;;;;;;;;;5093672;28;20313;-62
2024/02/16 04:43:14;;;;;;;0.00;0.00;;;;;;;;;;5093464;28;20240;-62
2024/02/16 04:45:39;;;;;;;0.10;0.10;;;;;;;;;;5093646;28;20651;-62
2024/02/16 04:48:05;;;;;;;0.00;0.00;;;;;;;;;;5093491;28;20671;-62
2024/02/16 04:50:31;;;;;;;1.38;0.73;;;;;;;;;;5092593;28;20020;-62
2024/02/16 04:52:56;;;;;;;0.20;0.20;;;;;;;;;;5073341;28;20065;-62
2024/02/16 04:55:22;;;;;;;0.13;0.13;;;;;;;;;;5073374;28;20103;-62
2024/02/16 04:57:47;;;;;;;0.38;0.35;;;;;;;;;;5073522;28;20254;-62
2024/02/16 05:00:13;;;;;;;0.10;0.10;;;;;;;;;;5073368;28;20031;-62
2024/02/16 05:02:38;;;;;;;0.00;0.00;;;;;;;;;;5090029;28;20248;-62
2024/02/16 05:05:04;;;;;;;0.13;0.13;;;;;;;;;;5093380;28;20058;-62
2024/02/16 05:07:31;;;;;;;0.13;0.13;;;;;;;;;;5093318;28;20103;-62
2024/02/16 05:09:58;;;;;;;0.00;0.00;;;;;;;;;;5093634;28;20029;-62
2024/02/16 05:12:23;;;;;;;0.10;0.10;;;;;;;;;;5074174;28;20019;-62
2024/02/16 05:14:49;;;;;;;0.10;0.10;;;;;;;;;;5073092;28;20103;-62
2024/02/16 05:17:14;;;;;;;0.32;0.28;;;;;;;;;;5073319;28;20012;-62
2024/02/16 05:19:39;;;;;;;0.10;0.10;;;;;;;;;;5073080;28;20020;-62
2024/02/16 05:22:05;;;;;;;0.07;0.07;;;;;;;;;;5073040;28;20385;-62
2024/02/16 05:24:30;;;;;;;0.03;0.03;;;;;;;;;;5073080;28;20721;-62
2024/02/16 05:26:55;;;;;;;0.03;0.03;;;;;;;;;;5072972;28;20258;-62
2024/02/16 05:29:21;;;;;;;8.77;0.63;;;;;;;;;;5073187;28;20036;-62
2024/02/16 05:31:46;;;;;;;0.00;0.00;;;;;;;;;;5073227;28;20016;-62
2024/02/16 05:34:11;;;;;;;0.13;0.13;;;;;;;;;;5072850;28;20561;-62
2024/02/16 05:36:36;;;;;;;0.07;0.07;;;;;;;;;;5072955;28;20021;-62
2024/02/16 05:39:19;;;;;;;0.00;0.00;;;;;;;;;;5073137;28;20025;-62
2024/02/16 05:41:45;;;;;;;0.03;0.03;;;;;;;;;;5072939;28;20021;-62
2024/02/16 05:44:10;;;;;;;0.00;0.00;;;;;;;;;;5072967;28;20035;-64
2024/02/16 05:46:37;;;;;;;1.67;0.35;;;;;;;;;;5072821;28;20468;-79
2024/02/16 05:49:03;;;;;;;0.10;0.10;;;;;;;;;;5075324;28;20108;-66
2024/02/16 05:51:34;;;;;;;0.20;0.20;;;;;;;;;;5095579;28;20111;-66
2024/02/16 05:53:59;;;;;;;0.00;0.00;;;;;;;;;;5096831;28;20024;-66
2024/02/16 05:56:24;;;;;;;0.00;0.00;;;;;;;;;;5096934;28;20069;-66
2024/02/16 05:58:50;;;;;;;0.00;0.00;;;;;;;;;;5096741;28;20070;-66
2024/02/16 06:01:15;;;;;;;0.00;0.00;;;;;;;;;;5096800;28;20028;-66
2024/02/16 06:03:41;;;;;;;0.63;0.63;;;;;;;;;;5096699;28;20471;-66
2024/02/16 06:06:08;;;;;;;0.10;0.10;;;;;;;;;;5096922;28;20052;-66
2024/02/16 06:08:33;;;;;;;0.00;0.00;;;;;;;;;;5096434;28;20077;-66
2024/02/16 06:10:58;;;;;;;0.00;0.00;;;;;;;;;;5096244;28;20028;-66
2024/02/16 06:13:23;;;;;;;0.00;0.00;;;;;;;;;;5096495;28;20023;-66
2024/02/16 06:15:49;;;;;;;0.03;0.03;;;;;;;;;;5096473;28;20073;-66
2024/02/16 06:18:14;;;;;;;0.00;0.00;;;;;;;;;;5096589;28;20384;-66
2024/02/16 06:20:39;;;;;;;0.00;0.00;;;;;;;;;;5095777;28;20024;-66
2024/02/16 06:23:04;;;;;;;0.30;0.30;;;;;;;;;;5096375;28;20479;-66
2024/02/16 06:25:30;;;;;;;0.08;0.08;;;;;;;;;;5096265;28;20642;-66
2024/02/16 06:27:55;;;;;;;0.00;0.00;;;;;;;;;;5096223;28;20042;-65
2024/02/16 06:30:20;;;;;;;0.00;0.00;;;;;;;;;;5095755;28;20102;-65
2024/02/16 06:32:45;;;;;;;0.00;0.00;;;;;;;;;;5096122;28;20071;-65
2024/02/16 06:35:11;;;;;;;0.00;0.00;;;;;;;;;;5096120;28;20122;-65
2024/02/16 06:37:38;;;;;;;0.00;0.00;;;;;;;;;;5095998;28;20379;-65
2024/02/16 06:40:04;;;;;;;0.05;0.05;;;;;;;;;;5096243;28;20016;-65
2024/02/16 06:42:30;;;;;;;0.03;0.03;;;;;;;;;;5095947;28;20032;-65
2024/02/16 06:44:55;;;;;;;0.00;0.00;;;;;;;;;;5096197;28;20440;-65
2024/02/16 06:47:23;;;;;;;0.00;0.00;;;;;;;;;;5095819;28;20103;-65
2024/02/16 06:49:48;;;;;;;0.00;0.00;;;;;;;;;;5095881;28;20107;-65
2024/02/16 06:52:15;;;;;;;0.10;0.10;;;;;;;;;;5076531;28;20112;-65
2024/02/16 06:54:40;;;;;;;0.00;0.00;;;;;;;;;;5075543;28;20484;-65
2024/02/16 06:57:05;;;;;;;0.00;0.00;;;;;;;;;;5075471;28;20052;-65
2024/02/16 06:59:31;;;;;;;0.20;0.20;;;;;;;;;;5080668;28;20120;-65
2024/02/16 07:01:56;;;;;;;0.00;0.00;;;;;;;;;;5095381;28;20028;-65
2024/02/16 07:04:21;;;;;;;0.00;0.00;;;;;;;;;;5095558;28;20012;-65
2024/02/16 07:06:46;;;;;;;0.10;0.10;;;;;;;;;;5095773;28;20020;-65
2024/02/16 07:09:15;;;;;;;0.00;0.00;;;;;;;;;;5095619;28;20456;-65
2024/02/16 07:11:40;;;;;;;0.10;0.10;;;;;;;;;;5094897;28;20368;-65
2024/02/16 07:14:07;;;;;;;0.10;0.10;;;;;;;;;;5095011;28;20020;-65
2024/02/16 07:16:33;;;;;;;0.10;0.10;;;;;;;;;;5095210;28;20024;-65
2024/02/16 07:18:58;;;;;;;0.00;0.00;;;;;;;;;;5095288;28;20036;-65
2024/02/16 07:21:23;;;;;;;0.30;0.30;;;;;;;;;;5095112;28;20326;-65
2024/02/16 07:23:48;;;;;;;0.55;0.32;;;;;;;;;;5095431;28;20257;-65
2024/02/16 07:26:14;;;;;;;0.10;0.10;;;;;;;;;;5095398;28;20376;-65
2024/02/16 07:28:39;;;;;;;0.05;0.05;;;;;;;;;;5095279;28;20050;-65
2024/02/16 07:31:05;;;;;;;0.10;0.10;;;;;;;;;;5094412;28;20016;-65
2024/02/16 07:33:30;;;;;;;0.00;0.00;;;;;;;;;;5094999;28;20036;-65
2024/02/16 07:35:56;;;;;;;0.10;0.10;;;;;;;;;;5095176;28;20034;-65
2024/02/16 07:38:21;;;;;;;0.00;0.00;;;;;;;;;;5095194;28;20495;-66
2024/02/16 07:40:47;;;;;;;0.43;0.43;;;;;;;;;;5094577;28;20081;-66
2024/02/16 07:43:13;;;;;;;0.00;0.00;;;;;;;;;;5094776;28;20030;-66
2024/02/16 07:45:38;;;;;;;0.10;0.10;;;;;;;;;;5094717;28;20107;-66
2024/02/16 07:48:06;;;;;;;0.10;0.10;;;;;;;;;;5094934;28;20035;-66
2024/02/16 07:50:31;;;;;;;0.20;0.20;;;;;;;;;;5086706;28;20261;-66
2024/02/16 07:52:57;;;;;;;0.10;0.10;;;;;;;;;;5074642;28;20016;-66
2024/02/16 07:55:24;;;;;;;2.65;0.57;;;;;;;;;;5074353;28;20020;-66
2024/02/16 07:57:49;;;;;;;1.15;0.43;;;;;;;;;;5075017;28;20545;-66
2024/02/16 08:00:15;;;;;;;0.30;0.27;;;;;;;;;;5074724;28;20016;-66
2024/02/16 08:02:43;;;;;;;0.10;0.10;;;;;;;;;;5090239;28;20261;-66
2024/02/16 08:05:08;;;;;;;0.00;0.00;;;;;;;;;;5094632;28;20026;-66
2024/02/16 08:07:34;;;;;;;0.03;0.03;;;;;;;;;;5094314;28;20413;-66
2024/02/16 08:10:00;;;;;;;0.10;0.10;;;;;;;;;;5091502;28;20441;-66
2024/02/16 08:12:27;;;;;;;0.13;0.13;;;;;;;;;;5080389;28;20498;-66
2024/02/16 08:14:53;;;;;;;0.10;0.10;;;;;;;;;;5094098;28;20023;-66
2024/02/16 08:17:18;;;;;;;0.10;0.10;;;;;;;;;;5094414;28;20020;-66
2024/02/16 08:19:43;;;;;;;0.60;0.53;;;;;;;;;;5094376;28;20095;-66
2024/02/16 08:22:08;;;;;;;0.30;0.30;;;;;;;;;;5093436;28;20280;-66
2024/02/16 08:24:34;;;;;;;0.08;0.08;;;;;;;;;;5094321;28;20216;-66
2024/02/16 08:27:00;;;;;;;0.15;0.15;;;;;;;;;;5094002;28;20047;-66
2024/02/16 08:29:28;;;;;;;0.00;0.00;;;;;;;;;;5093943;28;20468;-66
2024/02/16 08:31:54;;;;;;;0.10;0.10;;;;;;;;;;5093588;28;20097;-66
2024/02/16 08:34:19;;;;;;;0.50;0.50;;;;;;;;;;5093663;28;20043;-66
2024/02/16 08:36:48;;;;;;;0.10;0.10;;;;;;;;;;5094117;28;20031;-66
2024/02/16 08:39:13;;;;;;;0.00;0.00;;;;;;;;;;5093923;28;20028;-66
2024/02/16 08:41:39;;;;;;;0.00;0.00;;;;;;;;;;5078418;28;20028;-66
2024/02/16 08:44:04;;;;;;;0.13;0.13;;;;;;;;;;5073703;28;20027;-66
2024/02/16 08:46:30;;;;;;;0.00;0.00;;;;;;;;;;5073727;28;20480;-66
2024/02/16 08:48:55;;;;;;;0.20;0.20;;;;;;;;;;5073507;28;20024;-66
2024/02/16 08:51:20;;;;;;;0.10;0.10;;;;;;;;;;5085561;28;20024;-66
2024/02/16 08:53:46;;;;;;;0.20;0.20;;;;;;;;;;5093552;28;20024;-66
2024/02/16 08:56:11;;;;;;;0.10;0.10;;;;;;;;;;5093490;28;20336;-66
2024/02/16 08:58:36;;;;;;;0.05;0.05;;;;;;;;;;5093511;28;20149;-65
2024/02/16 09:01:02;;;;;;;2.67;0.30;;;;;;;;;;5090891;28;20501;-65
2024/02/16 09:03:27;;;;;;;1.23;0.33;;;;;;;;;;5093498;28;20102;-66
2024/02/16 09:05:52;;;;;;;0.40;0.40;;;;;;;;;;5093448;28;20323;-66
2024/02/16 09:08:17;;;;;;;0.10;0.10;;;;;;;;;;5093542;28;20265;-66
2024/02/16 09:10:43;;;;;;;0.40;0.40;;;;;;;;;;5084769;28;20034;-66
2024/02/16 09:13:09;;;;;;;0.17;0.17;;;;;;;;;;5073093;28;20027;-66
2024/02/16 09:15:34;;;;;;;0.08;0.08;;;;;;;;;;5073095;28;20049;-66
2024/02/16 09:18:00;;;;;;;1.50;0.43;;;;;;;;;;5073373;28;20048;-66
2024/02/16 09:20:25;;;;;;;0.00;0.00;;;;;;;;;;5073001;28;20484;-66
2024/02/16 09:22:50;;;;;;;0.20;0.20;;;;;;;;;;5055113;28;20028;-66
2024/02/16 09:25:16;;;;;;;0.13;0.13;;;;;;;;;;5073840;28;20027;-66
2024/02/16 09:27:44;;;;;;;0.10;0.10;;;;;;;;;;5077343;28;20017;-66
2024/02/16 09:30:10;;;;;;;0.10;0.10;;;;;;;;;;5077341;28;20052;-66
2024/02/16 09:32:36;;;;;;;0.10;0.10;;;;;;;;;;5074992;28;20022;-66
2024/02/16 09:35:01;;;;;;;0.10;0.10;;;;;;;;;;5076657;28;20127;-66
2024/02/16 09:37:26;;;;;;;0.52;0.52;;;;;;;;;;5077016;28;20025;-66
2024/02/16 09:39:52;;;;;;;0.10;0.10;;;;;;;;;;5076951;28;20017;-66
2024/02/16 09:42:17;;;;;;;0.20;0.20;;;;;;;;;;5077145;28;20253;-66
2024/02/16 09:44:43;;;;;;;0.15;0.15;;;;;;;;;;5076797;28;20357;-66
2024/02/16 09:47:12;;;;;;;0.10;0.10;;;;;;;;;;5084394;28;20012;-66
2024/02/16 09:49:37;;;;;;;0.20;0.20;;;;;;;;;;5096836;28;20489;-66
2024/02/16 09:52:03;;;;;;;0.57;0.43;;;;;;;;;;5096651;28;20052;-66
2024/02/16 09:54:31;;;;;;;0.00;0.00;;;;;;;;;;5097190;28;20237;-66
2024/02/16 09:56:56;;;;;;;0.20;0.20;;;;;;;;;;5096889;28;20099;-66
2024/02/16 09:59:21;;;;;;;0.40;0.20;;;;;;;;;;5096919;28;20063;-66
2024/02/16 10:01:47;;;;;;;0.40;0.33;;;;;;;;;;5096447;28;20103;-66
2024/02/16 10:04:12;;;;;;;0.00;0.00;;;;;;;;;;5096762;28;20256;-66
2024/02/16 10:06:50;;;;;;;1.57;0.43;;;;;;;;;;5096682;28;20043;-66
2024/02/16 10:09:32;;;;;;;0.00;0.00;;;;;;;;;;5096830;28;20020;-66
2024/02/16 10:11:57;;;;;;;;;;;;;;;;;;5096862;28;20073;-66
2024/02/16 10:14:24;;;;;;;0.00;0.00;;;;;;;;;;5096517;28;19904;-66
2024/02/16 10:16:59;;;;;;;0.20;0.20;;;;;;;;;;5096709;28;20479;-66
2024/02/16 10:19:24;;;;;;;0.45;0.40;;;;;;;;;;5096122;28;20024;-66
2024/02/16 10:21:49;;;;;;;0.10;0.10;;;;;;;;;;5096086;28;20036;-66
2024/02/16 10:24:15;;;;;;;0.07;0.07;;;;;;;;;;5096436;28;20019;-66
2024/02/16 10:26:40;;;;;;;0.13;0.13;;;;;;;;;;5096559;28;20596;-66
2024/02/16 10:29:08;;;;;;;0.28;0.28;;;;;;;;;;5096151;28;20047;-66
2024/02/16 10:31:34;;;;;;;0.10;0.10;;;;;;;;;;5095863;28;20024;-66
2024/02/16 10:33:59;;;;;;;0.00;0.00;;;;;;;;;;5096067;28;20380;-66
2024/02/16 10:36:28;;;;;;;1.85;0.20;;;;;;;;;;5095803;28;20161;-66
2024/02/16 10:38:54;;;;;;;0.00;0.00;;;;;;;;;;5096345;28;20028;-66
2024/02/16 10:41:20;;;;;;;0.20;0.20;;;;;;;;;;5094020;28;20415;-66
2024/02/16 10:43:47;;;;;;;0.20;0.20;;;;;;;;;;5083023;28;20024;-66
2024/02/16 10:46:13;;;;;;;0.20;0.20;;;;;;;;;;5075638;28;20020;-66
2024/02/16 10:48:39;;;;;;;0.10;0.10;;;;;;;;;;5075603;28;20141;-66
2024/02/16 10:51:04;;;;;;;0.10;0.10;;;;;;;;;;5076693;28;20031;-66
2024/02/16 10:53:31;;;;;;;0.05;0.05;;;;;;;;;;5075592;28;20392;-66
2024/02/16 10:56:00;;;;;;;0.00;0.00;;;;;;;;;;5075474;28;20024;-66
2024/02/16 10:58:26;;;;;;;0.50;0.40;;;;;;;;;;5075499;28;20029;-66
2024/02/16 11:00:52;;;;;;;0.20;0.20;;;;;;;;;;5076496;28;20115;-66
2024/02/16 11:03:22;;;;;;;0.03;0.03;;;;;;;;;;5057421;28;20024;-66
2024/02/16 11:05:48;;;;;;;0.15;0.15;;;;;;;;;;5075613;28;20112;-66
2024/02/16 11:08:17;;;;;;;0.00;0.00;;;;;;;;;;5075686;28;20124;-66
2024/02/16 11:10:59;;;;;;;0.77;0.63;;;;;;;;;;5076529;28;20027;-66
2024/02/16 11:13:28;;;;;;;0.10;0.10;;;;;;;;;;5075363;28;20381;-66
2024/02/16 11:16:00;;;;;;;0.05;0.05;;;;;;;;;;5075300;28;20078;-66
2024/02/16 11:18:25;;;;;;;;;;;;;;;;;;5075774;28;20060;-66
2024/02/16 11:20:51;;;;;;;0.10;0.10;;;;;;;;;;5074917;28;20382;-66
2024/02/16 11:23:17;;;;;;;0.00;0.00;;;;;;;;;;5076078;28;20104;-66
2024/02/16 11:25:50;;;;;;;0.10;0.10;;;;;;;;;;5075167;28;20487;-66
2024/02/16 11:28:16;;;;;;;0.00;0.00;;;;;;;;;;5075082;28;20024;-66
2024/02/16 11:30:42;;;;;;;0.00;0.00;;;;;;;;;;5074788;28;20166;-66
2024/02/16 11:33:11;;;;;;;0.10;0.10;;;;;;;;;;5072664;28;20508;-66
2024/02/16 11:35:36;;;;;;;0.47;0.32;;;;;;;;;;5054778;28;20040;-66
2024/02/16 11:38:01;;;;;;;0.23;0.23;;;;;;;;;;5054731;28;20025;-66
2024/02/16 11:40:26;;;;;;;0.13;0.13;;;;;;;;;;5054897;28;20032;-66
2024/02/16 11:42:57;;;;;;;0.10;0.10;;;;;;;;;;5054996;28;20067;-66
2024/02/16 11:45:22;;;;;;;0.20;0.20;;;;;;;;;;5054597;28;20021;-66
2024/02/16 11:47:47;;;;;;;0.00;0.00;;;;;;;;;;5053647;28;20445;-66
2024/02/16 11:50:14;;;;;;;0.10;0.10;;;;;;;;;;5054405;28;20246;-66
2024/02/16 11:52:39;;;;;;;0.00;0.00;;;;;;;;;;5054328;28;20021;-66
2024/02/16 11:55:08;;;;;;;0.05;0.05;;;;;;;;;;5054552;28;20024;-66
2024/02/16 11:57:33;;;;;;;0.00;0.00;;;;;;;;;;5054263;28;20092;-66
2024/02/16 11:59:58;;;;;;;0.03;0.03;;;;;;;;;;5055228;28;20100;-66
2024/02/16 12:02:25;;;;;;;0.15;0.15;;;;;;;;;;5062337;28;20108;-66
2024/02/16 12:04:57;;;;;;;0.00;0.00;;;;;;;;;;5064471;28;20021;-66
2024/02/16 12:07:25;;;;;;;0.00;0.00;;;;;;;;;;5056102;28;20066;-66
2024/02/16 12:10:00;;;;;;;0.00;0.00;;;;;;;;;;5054091;28;20068;-66
2024/02/16 12:12:26;;;;;;;0.13;0.13;;;;;;;;;;5056535;28;20017;-66
2024/02/16 12:14:52;;;;;;;1.00;0.47;;;;;;;;;;5074196;28;20027;-66
2024/02/16 12:17:17;;;;;;;0.20;0.20;;;;;;;;;;5074212;28;20491;-66
2024/02/16 12:19:43;;;;;;;0.52;0.30;;;;;;;;;;5070382;28;20017;-66
2024/02/16 12:22:08;;;;;;;0.15;0.15;;;;;;;;;;5053894;28;20415;-66
2024/02/16 12:24:47;;;;;;;0.52;0.52;;;;;;;;;;5054350;28;20032;-66
2024/02/16 12:27:12;;;;;;;0.50;0.20;;;;;;;;;;5083451;28;20502;-66
2024/02/16 12:29:38;;;;;;;0.20;0.20;;;;;;;;;;5072779;28;20032;-66
2024/02/16 12:32:03;;;;;;;0.10;0.10;;;;;;;;;;5072940;28;20257;-66
2024/02/16 12:34:29;;;;;;;0.20;0.20;;;;;;;;;;5072600;28;20408;-66
2024/02/16 12:36:54;;;;;;;0.00;0.00;;;;;;;;;;5072721;28;20389;-66
2024/02/16 12:39:19;;;;;;;0.20;0.20;;;;;;;;;;5072757;28;20036;-66
2024/02/16 12:41:46;;;;;;;0.10;0.10;;;;;;;;;;5073156;28;20024;-66
2024/02/16 12:44:11;;;;;;;0.28;0.28;;;;;;;;;;5072963;28;20021;-66
2024/02/16 12:46:38;;;;;;;0.10;0.10;;;;;;;;;;5073883;28;20027;-66
2024/02/16 12:49:03;;;;;;;0.47;0.32;;;;;;;;;;5093259;28;20279;-66
2024/02/16 12:51:29;;;;;;;0.17;0.17;;;;;;;;;;5092647;28;20020;-66
2024/02/16 12:53:54;;;;;;;0.05;0.05;;;;;;;;;;5080945;28;20020;-66
2024/02/16 12:56:21;;;;;;;0.20;0.20;;;;;;;;;;5079109;28;20505;-66
2024/02/16 12:58:46;;;;;;;0.52;0.28;;;;;;;;;;5079076;28;20024;-66
2024/02/16 13:01:12;;;;;;;0.00;0.00;;;;;;;;;;5084442;28;20035;-66
2024/02/16 13:03:38;;;;;;;0.00;0.00;;;;;;;;;;5081184;28;20292;-65
2024/02/16 13:06:05;;;;;;;0.10;0.10;;;;;;;;;;5082338;28;20078;-65
2024/02/16 13:08:30;;;;;;;0.10;0.10;;;;;;;;;;5078186;28;20584;-65
2024/02/16 13:10:56;;;;;;;0.03;0.03;;;;;;;;;;5093341;28;20098;-65
2024/02/16 13:13:21;;;;;;;0.20;0.20;;;;;;;;;;5092456;28;20020;-65
2024/02/16 13:15:50;;;;;;;0.10;0.10;;;;;;;;;;5091940;28;20024;-65
2024/02/16 13:18:15;;;;;;;0.40;0.40;;;;;;;;;;5091939;28;20259;-65
2024/02/16 13:20:40;;;;;;;0.00;0.00;;;;;;;;;;5092200;28;20479;-65
2024/02/16 13:23:06;;;;;;;0.17;0.17;;;;;;;;;;5093440;28;20020;-65
2024/02/16 13:25:31;;;;;;;0.10;0.10;;;;;;;;;;5093286;28;20028;-65
2024/02/16 13:27:56;;;;;;;0.30;0.20;;;;;;;;;;5093563;28;20036;-65
2024/02/16 13:30:22;;;;;;;0.22;0.22;;;;;;;;;;5093225;28;20260;-65
2024/02/16 13:32:47;;;;;;;0.32;0.20;;;;;;;;;;5093223;28;20050;-65
2024/02/16 13:35:13;;;;;;;0.10;0.10;;;;;;;;;;5093050;28;20076;-65
2024/02/16 13:37:40;;;;;;;0.85;0.43;;;;;;;;;;5093112;28;20012;-65
2024/02/16 13:40:10;;;;;;;0.10;0.10;;;;;;;;;;5093354;28;20069;-65
2024/02/16 13:42:35;;;;;;;0.10;0.10;;;;;;;;;;5093069;28;20016;-65
2024/02/16 13:45:00;;;;;;;0.10;0.10;;;;;;;;;;5093120;28;20016;-65
2024/02/16 13:47:26;;;;;;;0.10;0.10;;;;;;;;;;5093093;28;20081;-65
2024/02/16 13:49:52;;;;;;;0.00;0.00;;;;;;;;;;5093124;28;20643;-65
2024/02/16 13:52:17;;;;;;;0.08;0.08;;;;;;;;;;5093272;28;20483;-65
2024/02/16 13:54:42;;;;;;;0.10;0.10;;;;;;;;;;5093288;28;20016;-65
2024/02/16 13:57:07;;;;;;;1.17;0.27;;;;;;;;;;5092986;28;20020;-65
2024/02/16 13:59:33;;;;;;;0.13;0.13;;;;;;;;;;5092986;28;20020;-65
2024/02/16 14:01:59;;;;;;;0.20;0.20;;;;;;;;;;5092827;28;20253;-65
2024/02/16 14:04:26;;;;;;;0.20;0.20;;;;;;;;;;5093160;28;20024;-65
2024/02/16 14:06:51;;;;;;;0.00;0.00;;;;;;;;;;5093121;28;20433;-65
2024/02/16 14:09:17;;;;;;;0.30;0.20;;;;;;;;;;5092879;28;20028;-65
2024/02/16 14:11:44;;;;;;;0.20;0.20;;;;;;;;;;5094058;28;20322;-65
2024/02/16 14:14:10;;;;;;;0.13;0.13;;;;;;;;;;5096626;28;20162;-65
2024/02/16 14:16:35;;;;;;;0.10;0.10;;;;;;;;;;5096571;28;20487;-65
2024/02/16 14:19:00;;;;;;;0.50;0.33;;;;;;;;;;5096505;28;20043;-65
2024/02/16 14:21:25;;;;;;;0.13;0.07;;;;;;;;;;5096504;28;20612;-65
2024/02/16 14:23:50;;;;;;;0.13;0.13;;;;;;;;;;5096667;28;20592;-65
2024/02/16 14:26:17;;;;;;;0.00;0.00;;;;;;;;;;5096612;28;20012;-65
2024/02/16 14:28:42;;;;;;;0.17;0.17;;;;;;;;;;5096503;28;20028;-65
2024/02/16 14:31:08;;;;;;;0.45;0.45;;;;;;;;;;5096293;28;20121;-65
2024/02/16 14:33:34;;;;;;;0.20;0.20;;;;;;;;;;5096266;28;20024;-65
2024/02/16 14:36:00;;;;;;;0.10;0.10;;;;;;;;;;5095838;28;20032;-65